sensor_id;sensor_type;location;lat;lon;timestamp;pressure;altitude;pressure_sealevel;temperature;humidity
54453;BME280;40363;52.270;10.546;2023-06-14T00:01:50;76146.06;;;-147.06;50.12
54453;BME280;40363;52.270;10.546;2023-06-14T00:04:17;76150.16;;;-147.06;50.59
54453;BME280;40363;52.270;10.546;2023-06-14T00:06:46;76156.34;;;-147.06;50.58
54453;BME280;40363;52.270;10.546;2023-06-14T00:09:16;76156.34;;;-147.06;50.75
54453;BME280;40363;52.270;10.546;2023-06-14T00:11:44;76164.56;;;-147.06;50.72
54453;BME280;40363;52.270;10.546;2023-06-14T00:14:11;76160.44;;;-147.06;50.71
54453;BME280;40363;52.270;10.546;2023-06-14T00:16:39;76170.72;;;-147.06;51.11
54453;BME280;40363;52.270;10.546;2023-06-14T00:19:08;76170.72;;;-147.06;51.09
54453;BME280;40363;52.270;10.546;2023-06-14T00:21:35;76174.84;;;-147.06;51.25
54453;BME280;40363;52.270;10.546;2023-06-14T00:24:03;76181.00;;;-147.06;51.62
54453;BME280;40363;52.270;10.546;2023-06-14T00:26:30;76189.22;;;-147.06;52.21
54453;BME280;40363;52.270;10.546;2023-06-14T00:28:57;76187.16;;;-147.06;52.38
54453;BME280;40363;52.270;10.546;2023-06-14T00:31:24;76201.56;;;-147.06;52.55
54453;BME280;40363;52.270;10.546;2023-06-14T00:33:52;76201.56;;;-147.06;53.08
54453;BME280;40363;52.270;10.546;2023-06-14T00:36:18;76213.88;;;-147.06;53.19
54453;BME280;40363;52.270;10.546;2023-06-14T00:38:45;76213.88;;;-147.06;54.15
54453;BME280;40363;52.270;10.546;2023-06-14T00:41:12;76213.88;;;-147.06;53.85
54453;BME280;40363;52.270;10.546;2023-06-14T00:43:47;76220.03;;;-147.06;54.34
54453;BME280;40363;52.270;10.546;2023-06-14T00:46:14;76222.09;;;-147.06;54.25
54453;BME280;40363;52.270;10.546;2023-06-14T00:48:41;76238.53;;;-147.06;54.65
54453;BME280;40363;52.270;10.546;2023-06-14T00:51:10;76255.00;;;-147.06;55.97
54453;BME280;40363;52.270;10.546;2023-06-14T00:53:36;76271.44;;;-147.06;56.36
54453;BME280;40363;52.270;10.546;2023-06-14T00:56:05;76259.09;;;-147.06;55.74
54453;BME280;40363;52.270;10.546;2023-06-14T00:58:32;76250.88;;;-147.06;55.67
54453;BME280;40363;52.270;10.546;2023-06-14T01:00:59;76267.31;;;-147.06;56.13
54453;BME280;40363;52.270;10.546;2023-06-14T01:03:25;76271.44;;;-147.06;56.08
54453;BME280;40363;52.270;10.546;2023-06-14T01:05:58;76279.66;;;-147.06;56.16
54453;BME280;40363;52.270;10.546;2023-06-14T01:08:39;76281.72;;;-147.06;56.02
54453;BME280;40363;52.270;10.546;2023-06-14T01:11:12;76283.75;;;-147.06;56.24
54453;BME280;40363;52.270;10.546;2023-06-14T01:13:44;76285.81;;;-147.06;57.03
54453;BME280;40363;52.270;10.546;2023-06-14T01:16:12;76291.97;;;-147.06;56.52
54453;BME280;40363;52.270;10.546;2023-06-14T01:18:39;76296.09;;;-147.06;57.16
54453;BME280;40363;52.270;10.546;2023-06-14T01:21:19;76294.03;;;-147.06;57.87
54453;BME280;40363;52.270;10.546;2023-06-14T01:23:48;76294.03;;;-147.06;57.60
54453;BME280;40363;52.270;10.546;2023-06-14T01:26:18;76291.97;;;-147.06;57.77
54453;BME280;40363;52.270;10.546;2023-06-14T01:28:45;76300.19;;;-147.06;57.97
54453;BME280;40363;52.270;10.546;2023-06-14T01:31:17;76300.19;;;-147.06;57.63
54453;BME280;40363;52.270;10.546;2023-06-14T01:33:44;76306.38;;;-147.06;58.09
54453;BME280;40363;52.270;10.546;2023-06-14T01:36:12;76316.66;;;-147.06;58.18
54453;BME280;40363;52.270;10.546;2023-06-14T01:38:39;76316.66;;;-147.06;58.37
54453;BME280;40363;52.270;10.546;2023-06-14T01:41:09;76320.75;;;-147.06;58.13
54453;BME280;40363;52.270;10.546;2023-06-14T01:43:36;76328.97;;;-147.06;58.59
54453;BME280;40363;52.270;10.546;2023-06-14T01:46:05;76335.13;;;-147.06;59.56
54453;BME280;40363;52.270;10.546;2023-06-14T01:48:32;76343.38;;;-147.06;59.51
54453;BME280;40363;52.270;10.546;2023-06-14T01:50:59;76349.53;;;-147.06;59.51
54453;BME280;40363;52.270;10.546;2023-06-14T01:53:25;76351.59;;;-147.06;59.87
54453;BME280;40363;52.270;10.546;2023-06-14T01:55:52;76357.75;;;-147.06;59.52
54453;BME280;40363;52.270;10.546;2023-06-14T01:58:20;76370.09;;;-147.06;59.40
54453;BME280;40363;52.270;10.546;2023-06-14T02:00:47;76374.19;;;-147.06;59.44
54453;BME280;40363;52.270;10.546;2023-06-14T02:03:14;76380.34;;;-147.06;59.63
54453;BME280;40363;52.270;10.546;2023-06-14T02:05:40;76390.63;;;-147.06;59.45
54453;BME280;40363;52.270;10.546;2023-06-14T02:08:07;76398.84;;;-147.06;59.72
54453;BME280;40363;52.270;10.546;2023-06-14T02:10:33;76407.06;;;-147.06;60.28
54453;BME280;40363;52.270;10.546;2023-06-14T02:13:00;76407.06;;;-147.06;60.35
54453;BME280;40363;52.270;10.546;2023-06-14T02:15:28;76407.06;;;-147.06;60.79
54453;BME280;40363;52.270;10.546;2023-06-14T02:17:59;76427.63;;;-147.06;60.96
54453;BME280;40363;52.270;10.546;2023-06-14T02:20:25;76429.69;;;-147.06;61.16
54453;BME280;40363;52.270;10.546;2023-06-14T02:22:52;76435.84;;;-147.06;61.67
54453;BME280;40363;52.270;10.546;2023-06-14T02:25:18;76431.75;;;-147.06;61.54
54453;BME280;40363;52.270;10.546;2023-06-14T02:27:45;76435.84;;;-147.06;61.43
54453;BME280;40363;52.270;10.546;2023-06-14T02:30:12;76437.91;;;-147.06;61.72
54453;BME280;40363;52.270;10.546;2023-06-14T02:32:42;76437.91;;;-147.06;61.59
54453;BME280;40363;52.270;10.546;2023-06-14T02:35:09;76444.06;;;-147.06;61.54
54453;BME280;40363;52.270;10.546;2023-06-14T02:37:35;76452.28;;;-147.06;62.11
54453;BME280;40363;52.270;10.546;2023-06-14T02:40:03;76460.53;;;-147.06;62.29
54453;BME280;40363;52.270;10.546;2023-06-14T02:42:29;76466.69;;;-147.06;62.66
54453;BME280;40363;52.270;10.546;2023-06-14T02:44:56;76476.97;;;-147.06;62.96
54453;BME280;40363;52.270;10.546;2023-06-14T02:47:22;76479.00;;;-147.06;63.37
54453;BME280;40363;52.270;10.546;2023-06-14T02:49:51;76495.47;;;-147.06;63.60
54453;BME280;40363;52.270;10.546;2023-06-14T02:52:18;76493.41;;;-147.06;63.76
54453;BME280;40363;52.270;10.546;2023-06-14T02:54:45;76476.97;;;-147.06;63.51
54453;BME280;40363;52.270;10.546;2023-06-14T02:57:12;76489.28;;;-147.06;63.52
54453;BME280;40363;52.270;10.546;2023-06-14T02:59:39;76489.28;;;-147.06;63.71
54453;BME280;40363;52.270;10.546;2023-06-14T03:02:05;76495.47;;;-147.06;63.96
54453;BME280;40363;52.270;10.546;2023-06-14T03:04:32;76497.50;;;-147.06;64.42
54453;BME280;40363;52.270;10.546;2023-06-14T03:07:04;76505.75;;;-147.06;64.86
54453;BME280;40363;52.270;10.546;2023-06-14T03:09:35;76511.91;;;-147.06;65.50
54453;BME280;40363;52.270;10.546;2023-06-14T03:12:02;76516.00;;;-147.06;65.73
54453;BME280;40363;52.270;10.546;2023-06-14T03:14:29;76518.06;;;-147.06;66.16
54453;BME280;40363;52.270;10.546;2023-06-14T03:16:56;76526.28;;;-147.06;66.35
54453;BME280;40363;52.270;10.546;2023-06-14T03:19:24;76534.50;;;-147.06;66.57
54453;BME280;40363;52.270;10.546;2023-06-14T03:21:51;76538.63;;;-147.06;66.64
54453;BME280;40363;52.270;10.546;2023-06-14T03:24:20;76555.06;;;-147.06;66.94
54453;BME280;40363;52.270;10.546;2023-06-14T03:26:46;76542.72;;;-147.06;66.39
54453;BME280;40363;52.270;10.546;2023-06-14T03:29:13;76534.50;;;-147.06;66.52
54453;BME280;40363;52.270;10.546;2023-06-14T03:31:55;76542.72;;;-147.06;66.57
54453;BME280;40363;52.270;10.546;2023-06-14T03:34:22;76542.72;;;-147.06;67.16
54453;BME280;40363;52.270;10.546;2023-06-14T03:36:49;76546.84;;;-147.06;67.00
54453;BME280;40363;52.270;10.546;2023-06-14T03:39:15;76553.00;;;-147.06;67.84
54453;BME280;40363;52.270;10.546;2023-06-14T03:41:43;76557.13;;;-147.06;68.10
54453;BME280;40363;52.270;10.546;2023-06-14T03:44:10;76565.34;;;-147.06;67.78
54453;BME280;40363;52.270;10.546;2023-06-14T03:46:36;76569.44;;;-147.06;68.12
54453;BME280;40363;52.270;10.546;2023-06-14T03:49:03;76571.50;;;-147.06;69.10
54453;BME280;40363;52.270;10.546;2023-06-14T03:51:29;76575.63;;;-147.06;68.45
54453;BME280;40363;52.270;10.546;2023-06-14T03:53:56;76587.94;;;-147.06;68.54
54453;BME280;40363;52.270;10.546;2023-06-14T03:56:22;76583.84;;;-147.06;68.31
54453;BME280;40363;52.270;10.546;2023-06-14T03:58:50;76575.63;;;-147.06;68.23
54453;BME280;40363;52.270;10.546;2023-06-14T04:01:17;76565.34;;;-147.06;68.21
54453;BME280;40363;52.270;10.546;2023-06-14T04:03:43;76559.19;;;-147.06;68.01
54453;BME280;40363;52.270;10.546;2023-06-14T04:06:10;76563.28;;;-147.06;68.17
54453;BME280;40363;52.270;10.546;2023-06-14T04:08:36;76565.34;;;-147.06;68.11
54453;BME280;40363;52.270;10.546;2023-06-14T04:11:05;76553.00;;;-147.06;67.82
54453;BME280;40363;52.270;10.546;2023-06-14T04:13:31;76553.00;;;-147.06;67.99
54453;BME280;40363;52.270;10.546;2023-06-14T04:16:01;76546.84;;;-147.06;67.76
54453;BME280;40363;52.270;10.546;2023-06-14T04:18:28;76571.50;;;-147.06;68.66
54453;BME280;40363;52.270;10.546;2023-06-14T04:20:54;76563.28;;;-147.06;68.76
54453;BME280;40363;52.270;10.546;2023-06-14T04:23:21;76557.13;;;-147.06;68.97
54453;BME280;40363;52.270;10.546;2023-06-14T04:25:48;76563.28;;;-147.06;68.81
54453;BME280;40363;52.270;10.546;2023-06-14T04:28:15;76555.06;;;-147.06;69.21
54453;BME280;40363;52.270;10.546;2023-06-14T04:30:42;76555.06;;;-147.06;68.39
54453;BME280;40363;52.270;10.546;2023-06-14T04:33:11;76550.97;;;-147.06;68.48
54453;BME280;40363;52.270;10.546;2023-06-14T04:35:38;76548.91;;;-147.06;68.34
54453;BME280;40363;52.270;10.546;2023-06-14T04:38:06;76548.91;;;-147.06;68.78
54453;BME280;40363;52.270;10.546;2023-06-14T04:40:34;76542.72;;;-147.06;68.34
54453;BME280;40363;52.270;10.546;2023-06-14T04:43:01;76550.97;;;-147.06;68.70
54453;BME280;40363;52.270;10.546;2023-06-14T04:45:30;76546.84;;;-147.06;68.74
54453;BME280;40363;52.270;10.546;2023-06-14T04:47:58;76532.47;;;-147.06;67.97
54453;BME280;40363;52.270;10.546;2023-06-14T04:50:26;76513.97;;;-147.06;67.69
54453;BME280;40363;52.270;10.546;2023-06-14T04:52:55;76530.41;;;-147.06;68.70
54453;BME280;40363;52.270;10.546;2023-06-14T04:55:22;76522.19;;;-147.06;67.88
54453;BME280;40363;52.270;10.546;2023-06-14T04:57:49;76505.75;;;-147.06;67.99
54453;BME280;40363;52.270;10.546;2023-06-14T05:00:18;76485.19;;;-147.06;67.50
54453;BME280;40363;52.270;10.546;2023-06-14T05:02:45;76481.06;;;-147.06;67.34
54453;BME280;40363;52.270;10.546;2023-06-14T05:05:16;76493.41;;;-147.06;67.53
54453;BME280;40363;52.270;10.546;2023-06-14T05:07:44;76476.97;;;-147.06;67.13
54453;BME280;40363;52.270;10.546;2023-06-14T05:10:11;76472.84;;;-147.06;67.50
54453;BME280;40363;52.270;10.546;2023-06-14T05:12:38;76476.97;;;-147.06;67.11
54453;BME280;40363;52.270;10.546;2023-06-14T05:15:05;76460.53;;;-147.06;67.21
54453;BME280;40363;52.270;10.546;2023-06-14T05:17:34;76450.25;;;-147.06;67.08
54453;BME280;40363;52.270;10.546;2023-06-14T05:20:01;76442.03;;;-147.06;66.57
54453;BME280;40363;52.270;10.546;2023-06-14T05:22:27;76427.63;;;-147.06;65.97
54453;BME280;40363;52.270;10.546;2023-06-14T05:24:55;76415.31;;;-147.06;65.53
54453;BME280;40363;52.270;10.546;2023-06-14T05:27:22;76396.81;;;-147.06;64.45
54453;BME280;40363;52.270;10.546;2023-06-14T05:29:50;76378.31;;;-147.06;63.82
54453;BME280;40363;52.270;10.546;2023-06-14T05:32:16;76337.19;;;-147.06;63.07
54453;BME280;40363;52.270;10.546;2023-06-14T05:34:43;76318.69;;;-147.06;62.22
54453;BME280;40363;52.270;10.546;2023-06-14T05:37:09;76271.44;;;-147.06;61.05
54453;BME280;40363;52.270;10.546;2023-06-14T05:39:36;76226.22;;;-147.06;60.00
54453;BME280;40363;52.270;10.546;2023-06-14T05:42:05;76275.53;;;-147.06;60.99
54453;BME280;40363;52.270;10.546;2023-06-14T05:44:32;76252.94;;;-147.06;60.81
54453;BME280;40363;52.270;10.546;2023-06-14T05:46:58;76259.09;;;-147.06;60.99
54453;BME280;40363;52.270;10.546;2023-06-14T05:49:25;76236.50;;;-147.06;60.63
54453;BME280;40363;52.270;10.546;2023-06-14T05:51:52;76236.50;;;-147.06;60.85
54453;BME280;40363;52.270;10.546;2023-06-14T05:54:18;76211.81;;;-147.06;59.99
54453;BME280;40363;52.270;10.546;2023-06-14T05:56:45;76181.00;;;-147.06;59.17
54453;BME280;40363;52.270;10.546;2023-06-14T05:59:13;76232.38;;;-147.06;60.37
54453;BME280;40363;52.270;10.546;2023-06-14T06:01:39;76135.78;;;-147.06;58.46
54453;BME280;40363;52.270;10.546;2023-06-14T06:04:06;76086.47;;;-147.06;57.04
54453;BME280;40363;52.270;10.546;2023-06-14T06:06:32;76006.31;;;-147.06;54.86
54453;BME280;40363;52.270;10.546;2023-06-14T06:09:00;75950.81;;;-147.06;54.00
54453;BME280;40363;52.270;10.546;2023-06-14T06:11:27;75843.97;;;-147.06;51.32
54453;BME280;40363;52.270;10.546;2023-06-14T06:13:53;75897.38;;;-147.06;50.87
54453;BME280;40363;52.270;10.546;2023-06-14T06:16:21;75903.56;;;-147.06;51.55
54453;BME280;40363;52.270;10.546;2023-06-14T06:18:48;75821.34;;;-147.06;50.02
54453;BME280;40363;52.270;10.546;2023-06-14T06:21:15;75595.31;;;-147.06;45.68
54453;BME280;40363;52.270;10.546;2023-06-14T06:23:41;75566.53;;;-147.06;44.83
54453;BME280;40363;52.270;10.546;2023-06-14T06:26:08;75482.28;;;-147.06;42.98
54453;BME280;40363;52.270;10.546;2023-06-14T06:28:34;75486.41;;;-147.06;43.56
54453;BME280;40363;52.270;10.546;2023-06-14T06:31:01;75408.31;;;-147.06;41.89
54453;BME280;40363;52.270;10.546;2023-06-14T06:33:29;75387.75;;;-147.06;41.59
54453;BME280;40363;52.270;10.546;2023-06-14T06:35:56;75361.06;;;-147.06;40.77
54453;BME280;40363;52.270;10.546;2023-06-14T06:38:22;75373.38;;;-147.06;40.59
54453;BME280;40363;52.270;10.546;2023-06-14T06:40:49;75317.91;;;-147.06;39.63
54453;BME280;40363;52.270;10.546;2023-06-14T06:43:15;75426.81;;;-147.06;40.93
54453;BME280;40363;52.270;10.546;2023-06-14T06:45:43;75285.03;;;-147.06;39.23
54453;BME280;40363;52.270;10.546;2023-06-14T06:48:09;75367.22;;;-147.06;40.21
54453;BME280;40363;52.270;10.546;2023-06-14T06:50:37;75389.81;;;-147.06;40.91
54453;BME280;40363;52.270;10.546;2023-06-14T06:53:04;75270.63;;;-147.06;39.36
54453;BME280;40363;52.270;10.546;2023-06-14T06:55:32;75307.63;;;-147.06;38.80
54453;BME280;40363;52.270;10.546;2023-06-14T06:57:58;75319.94;;;-147.06;38.16
54453;BME280;40363;52.270;10.546;2023-06-14T07:00:25;75332.28;;;-147.06;38.80
54453;BME280;40363;52.270;10.546;2023-06-14T07:02:52;75313.78;;;-147.06;38.99
54453;BME280;40363;52.270;10.546;2023-06-14T07:05:20;75315.84;;;-147.06;39.07
54453;BME280;40363;52.270;10.546;2023-06-14T07:07:48;75313.78;;;-147.06;38.72
54453;BME280;40363;52.270;10.546;2023-06-14T07:10:15;75432.97;;;-147.06;39.50
54453;BME280;40363;52.270;10.546;2023-06-14T07:12:41;75301.47;;;-147.06;38.13
54453;BME280;40363;52.270;10.546;2023-06-14T07:15:09;75268.59;;;-147.06;38.15
54453;BME280;40363;52.270;10.546;2023-06-14T07:17:36;75237.75;;;-147.06;37.36
54453;BME280;40363;52.270;10.546;2023-06-14T07:20:03;75215.16;;;-147.06;37.08
54453;BME280;40363;52.270;10.546;2023-06-14T07:22:37;75223.38;;;-147.06;37.01
54453;BME280;40363;52.270;10.546;2023-06-14T07:25:05;75200.78;;;-147.06;35.92
54453;BME280;40363;52.270;10.546;2023-06-14T07:27:32;75338.44;;;-147.06;37.65
54453;BME280;40363;52.270;10.546;2023-06-14T07:29:58;75282.97;;;-147.06;36.75
54453;BME280;40363;52.270;10.546;2023-06-14T07:32:25;75211.06;;;-147.06;36.25
54453;BME280;40363;52.270;10.546;2023-06-14T07:34:52;75108.31;;;-147.06;35.44
54453;BME280;40363;52.270;10.546;2023-06-14T07:37:18;75276.81;;;-147.06;37.16
54453;BME280;40363;52.270;10.546;2023-06-14T07:39:45;75196.66;;;-147.06;36.19
54453;BME280;40363;52.270;10.546;2023-06-14T07:42:13;75104.22;;;-147.06;35.21
54453;BME280;40363;52.270;10.546;2023-06-14T07:44:40;75235.72;;;-147.06;36.07
54453;BME280;40363;52.270;10.546;2023-06-14T07:47:06;75280.91;;;-147.06;36.63
54453;BME280;40363;52.270;10.546;2023-06-14T07:49:33;75081.59;;;-147.06;34.82
54453;BME280;40363;52.270;10.546;2023-06-14T07:52:00;75169.97;;;-147.06;34.86
54453;BME280;40363;52.270;10.546;2023-06-14T07:54:26;75091.88;;;-147.06;34.11
54453;BME280;40363;52.270;10.546;2023-06-14T07:56:53;75252.16;;;-147.06;35.14
54453;BME280;40363;52.270;10.546;2023-06-14T07:59:22;75525.44;;;-147.06;38.82
54453;BME280;40363;52.270;10.546;2023-06-14T08:01:49;75311.75;;;-147.06;37.33
54453;BME280;40363;52.270;10.546;2023-06-14T08:04:16;75165.84;;;-147.06;35.81
54453;BME280;40363;52.270;10.546;2023-06-14T08:06:42;75116.53;;;-147.06;35.36
54453;BME280;40363;52.270;10.546;2023-06-14T08:09:11;75085.72;;;-147.06;34.53
54453;BME280;40363;52.270;10.546;2023-06-14T08:11:38;75124.75;;;-147.06;34.50
54453;BME280;40363;52.270;10.546;2023-06-14T08:14:05;75071.34;;;-147.06;34.38
54453;BME280;40363;52.270;10.546;2023-06-14T08:16:33;75050.78;;;-147.06;34.48
54453;BME280;40363;52.270;10.546;2023-06-14T08:19:00;75048.72;;;-147.06;34.02
54453;BME280;40363;52.270;10.546;2023-06-14T08:21:26;75063.13;;;-147.06;34.76
54453;BME280;40363;52.270;10.546;2023-06-14T08:23:54;75141.19;;;-147.06;34.46
54453;BME280;40363;52.270;10.546;2023-06-14T08:26:21;75063.13;;;-147.06;34.61
54453;BME280;40363;52.270;10.546;2023-06-14T08:28:47;75091.88;;;-147.06;34.26
54453;BME280;40363;52.270;10.546;2023-06-14T08:31:14;75040.50;;;-147.06;34.03
54453;BME280;40363;52.270;10.546;2023-06-14T08:33:42;75108.31;;;-147.06;34.34
54453;BME280;40363;52.270;10.546;2023-06-14T08:36:09;75215.16;;;-147.06;34.22
54453;BME280;40363;52.270;10.546;2023-06-14T08:38:37;75359.00;;;-147.06;36.34
54453;BME280;40363;52.270;10.546;2023-06-14T08:41:05;75219.28;;;-147.06;35.11
54453;BME280;40363;52.270;10.546;2023-06-14T08:43:32;75186.41;;;-147.06;35.14
54453;BME280;40363;52.270;10.546;2023-06-14T08:46:01;75128.88;;;-147.06;34.66
54453;BME280;40363;52.270;10.546;2023-06-14T08:48:29;75149.41;;;-147.06;34.98
54453;BME280;40363;52.270;10.546;2023-06-14T08:50:59;75184.34;;;-147.06;34.79
54453;BME280;40363;52.270;10.546;2023-06-14T08:53:28;75104.22;;;-147.06;34.22
54453;BME280;40363;52.270;10.546;2023-06-14T08:55:57;75268.59;;;-147.06;35.03
54453;BME280;40363;52.270;10.546;2023-06-14T08:58:27;75211.06;;;-147.06;35.21
54453;BME280;40363;52.270;10.546;2023-06-14T09:00:54;75157.63;;;-147.06;34.47
54453;BME280;40363;52.270;10.546;2023-06-14T09:03:21;75091.88;;;-147.06;34.03
54453;BME280;40363;52.270;10.546;2023-06-14T09:05:55;75182.28;;;-147.06;33.92
54453;BME280;40363;52.270;10.546;2023-06-14T09:08:22;75202.84;;;-147.06;34.72
54453;BME280;40363;52.270;10.546;2023-06-14T09:10:49;75098.03;;;-147.06;33.75
54453;BME280;40363;52.270;10.546;2023-06-14T09:13:17;75135.03;;;-147.06;33.91
54453;BME280;40363;52.270;10.546;2023-06-14T09:15:44;75223.38;;;-147.06;33.95
54453;BME280;40363;52.270;10.546;2023-06-14T09:18:11;75182.28;;;-147.06;34.93
54453;BME280;40363;52.270;10.546;2023-06-14T09:20:37;75180.22;;;-147.06;34.27
54453;BME280;40363;52.270;10.546;2023-06-14T09:23:04;75186.41;;;-147.06;34.18
54453;BME280;40363;52.270;10.546;2023-06-14T09:25:41;75209.00;;;-147.06;34.18
54453;BME280;40363;52.270;10.546;2023-06-14T09:28:08;75157.63;;;-147.06;34.43
54453;BME280;40363;52.270;10.546;2023-06-14T09:30:36;75145.31;;;-147.06;34.26
54453;BME280;40363;52.270;10.546;2023-06-14T09:33:02;75169.97;;;-147.06;34.59
54453;BME280;40363;52.270;10.546;2023-06-14T09:35:31;75289.13;;;-147.06;35.14
54453;BME280;40363;52.270;10.546;2023-06-14T09:37:58;75400.09;;;-147.06;37.12
54453;BME280;40363;52.270;10.546;2023-06-14T09:40:24;75221.31;;;-147.06;35.86
54453;BME280;40363;52.270;10.546;2023-06-14T09:42:53;75245.97;;;-147.06;34.69
54453;BME280;40363;52.270;10.546;2023-06-14T09:45:20;75198.72;;;-147.06;34.84
54453;BME280;40363;52.270;10.546;2023-06-14T09:47:49;75137.09;;;-147.06;34.79
54453;BME280;40363;52.270;10.546;2023-06-14T09:50:15;75124.75;;;-147.06;34.85
54453;BME280;40363;52.270;10.546;2023-06-14T09:52:43;75190.50;;;-147.06;34.85
54453;BME280;40363;52.270;10.546;2023-06-14T09:55:12;75190.50;;;-147.06;35.25
54453;BME280;40363;52.270;10.546;2023-06-14T09:57:41;75147.34;;;-147.06;34.36
54453;BME280;40363;52.270;10.546;2023-06-14T10:00:13;75297.34;;;-147.06;35.40
54453;BME280;40363;52.270;10.546;2023-06-14T10:02:42;75317.91;;;-147.06;36.07
54453;BME280;40363;52.270;10.546;2023-06-14T10:05:15;75324.06;;;-147.06;36.77
54453;BME280;40363;52.270;10.546;2023-06-14T10:07:48;75379.53;;;-147.06;36.77
54453;BME280;40363;52.270;10.546;2023-06-14T10:10:19;75352.84;;;-147.06;36.65
54453;BME280;40363;52.270;10.546;2023-06-14T10:12:46;75379.53;;;-147.06;37.45
54453;BME280;40363;52.270;10.546;2023-06-14T10:15:18;75359.00;;;-147.06;37.29
54453;BME280;40363;52.270;10.546;2023-06-14T10:17:49;75248.03;;;-147.06;35.14
54453;BME280;40363;52.270;10.546;2023-06-14T10:20:26;75262.41;;;-147.06;35.32
54453;BME280;40363;52.270;10.546;2023-06-14T10:23:00;75227.50;;;-147.06;35.11
54453;BME280;40363;52.270;10.546;2023-06-14T10:25:29;75309.69;;;-147.06;36.45
54453;BME280;40363;52.270;10.546;2023-06-14T10:28:14;75282.97;;;-147.06;36.37
54453;BME280;40363;52.270;10.546;2023-06-14T10:31:05;75235.72;;;-147.06;35.85
54453;BME280;40363;52.270;10.546;2023-06-14T10:33:33;75260.38;;;-147.06;36.06
54453;BME280;40363;52.270;10.546;2023-06-14T10:36:10;75182.28;;;-147.06;35.43
54453;BME280;40363;52.270;10.546;2023-06-14T10:38:57;75342.56;;;-147.06;36.02
54453;BME280;40363;52.270;10.546;2023-06-14T10:41:26;75291.19;;;-147.06;36.48
54453;BME280;40363;52.270;10.546;2023-06-14T10:44:10;75206.94;;;-147.06;36.19
54453;BME280;40363;52.270;10.546;2023-06-14T10:47:00;75344.63;;;-147.06;36.88
54453;BME280;40363;52.270;10.546;2023-06-14T10:49:38;75276.81;;;-147.06;37.15
54453;BME280;40363;52.270;10.546;2023-06-14T10:52:08;75167.91;;;-147.06;35.87
54453;BME280;40363;52.270;10.546;2023-06-14T10:55:03;75289.13;;;-147.06;36.95
54453;BME280;40363;52.270;10.546;2023-06-14T10:57:31;75356.94;;;-147.06;37.17
54453;BME280;40363;52.270;10.546;2023-06-14T10:59:59;75293.25;;;-147.06;36.66
54453;BME280;40363;52.270;10.546;2023-06-14T11:05:50;75340.50;;;-147.06;37.82
54453;BME280;40363;52.270;10.546;2023-06-14T11:11:15;75391.88;;;-147.06;38.81
54453;BME280;40363;52.270;10.546;2023-06-14T11:13:44;75317.91;;;-147.06;38.32
54453;BME280;40363;52.270;10.546;2023-06-14T11:16:13;75206.94;;;-147.06;36.38
54453;BME280;40363;52.270;10.546;2023-06-14T11:18:40;75252.16;;;-147.06;37.21
54453;BME280;40363;52.270;10.546;2023-06-14T11:21:09;75217.22;;;-147.06;37.19
54453;BME280;40363;52.270;10.546;2023-06-14T11:23:36;75295.28;;;-147.06;37.65
54453;BME280;40363;52.270;10.546;2023-06-14T11:26:02;75363.09;;;-147.06;38.50
54453;BME280;40363;52.270;10.546;2023-06-14T11:28:37;75307.63;;;-147.06;38.17
54453;BME280;40363;52.270;10.546;2023-06-14T11:31:04;75311.75;;;-147.06;37.90
54453;BME280;40363;52.270;10.546;2023-06-14T11:33:31;75324.06;;;-147.06;38.13
54453;BME280;40363;52.270;10.546;2023-06-14T11:35:57;75262.41;;;-147.06;38.60
54453;BME280;40363;52.270;10.546;2023-06-14T11:38:26;75211.06;;;-147.06;37.46
54453;BME280;40363;52.270;10.546;2023-06-14T11:40:52;75254.19;;;-147.06;37.97
54453;BME280;40363;52.270;10.546;2023-06-14T11:43:19;75268.59;;;-147.06;37.41
54453;BME280;40363;52.270;10.546;2023-06-14T11:45:48;75303.53;;;-147.06;38.49
54453;BME280;40363;52.270;10.546;2023-06-14T11:48:15;75311.75;;;-147.06;38.14
54453;BME280;40363;52.270;10.546;2023-06-14T11:50:42;75305.56;;;-147.06;38.04
54453;BME280;40363;52.270;10.546;2023-06-14T11:53:08;75278.84;;;-147.06;37.21
54453;BME280;40363;52.270;10.546;2023-06-14T11:55:38;75280.91;;;-147.06;37.48
54453;BME280;40363;52.270;10.546;2023-06-14T11:58:06;75293.25;;;-147.06;37.09
54453;BME280;40363;52.270;10.546;2023-06-14T12:00:35;75266.53;;;-147.06;37.17
54453;BME280;40363;52.270;10.546;2023-06-14T12:03:01;75282.97;;;-147.06;37.92
54453;BME280;40363;52.270;10.546;2023-06-14T12:05:28;75338.44;;;-147.06;38.68
54453;BME280;40363;52.270;10.546;2023-06-14T12:07:58;75307.63;;;-147.06;38.62
54453;BME280;40363;52.270;10.546;2023-06-14T12:10:27;75346.66;;;-147.06;38.91
54453;BME280;40363;52.270;10.546;2023-06-14T12:12:58;75326.13;;;-147.06;38.63
54453;BME280;40363;52.270;10.546;2023-06-14T12:15:27;75350.78;;;-147.06;39.16
54453;BME280;40363;52.270;10.546;2023-06-14T12:17:55;75352.84;;;-147.06;38.95
54453;BME280;40363;52.270;10.546;2023-06-14T12:20:22;75359.00;;;-147.06;39.19
54453;BME280;40363;52.270;10.546;2023-06-14T12:22:53;75301.47;;;-147.06;37.74
54453;BME280;40363;52.270;10.546;2023-06-14T12:25:27;75260.38;;;-147.06;37.17
54453;BME280;40363;52.270;10.546;2023-06-14T12:27:54;75299.41;;;-147.06;37.50
54453;BME280;40363;52.270;10.546;2023-06-14T12:30:22;75289.13;;;-147.06;37.75
54453;BME280;40363;52.270;10.546;2023-06-14T12:32:49;75245.97;;;-147.06;36.64
54453;BME280;40363;52.270;10.546;2023-06-14T12:35:16;75239.81;;;-147.06;36.92
54453;BME280;40363;52.270;10.546;2023-06-14T12:37:43;75245.97;;;-147.06;37.50
54453;BME280;40363;52.270;10.546;2023-06-14T12:40:11;75227.50;;;-147.06;37.06
54453;BME280;40363;52.270;10.546;2023-06-14T12:42:38;75291.19;;;-147.06;38.54